createdAt,value
2022-10-12T00:01:13.626Z,23.70
2022-10-12T00:03:41.196Z,23.70
2022-10-12T00:06:13.841Z,23.70
2022-10-12T00:08:42.060Z,23.70
2022-10-12T00:11:12.215Z,23.70
2022-10-12T00:13:39.762Z,23.70
2022-10-12T00:16:08.396Z,23.80
2022-10-12T00:18:36.478Z,23.80
2022-10-12T00:21:12.226Z,23.90
2022-10-12T00:23:43.263Z,24.00
2022-10-12T00:26:15.316Z,24.00
2022-10-12T00:28:43.182Z,24.00
2022-10-12T00:31:12.817Z,24.00
2022-10-12T00:33:40.532Z,24.00
2022-10-12T00:36:13.022Z,24.10
2022-10-12T00:38:40.562Z,24.10
2022-10-12T00:41:09.080Z,24.20
2022-10-12T00:43:39.836Z,24.30
2022-10-12T00:46:12.168Z,24.30
2022-10-12T00:48:40.398Z,24.30
2022-10-12T00:51:09.247Z,24.40
2022-10-12T00:53:40.117Z,24.50
2022-10-12T00:56:15.726Z,24.50
2022-10-12T00:58:47.119Z,24.50
2022-10-12T01:01:15.469Z,24.60
2022-10-12T01:03:45.209Z,24.60
2022-10-12T01:06:13.127Z,24.70
2022-10-12T01:08:41.904Z,24.80
2022-10-12T01:11:09.753Z,24.80
2022-10-12T01:13:37.419Z,24.90
2022-10-12T01:16:09.793Z,24.90
2022-10-12T01:18:43.186Z,25.00
2022-10-12T01:21:20.751Z,25.00
2022-10-12T01:24:08.016Z,25.00
2022-10-12T01:26:52.225Z,25.10
2022-10-12T01:29:41.662Z,25.10
2022-10-12T01:32:22.103Z,25.20
2022-10-12T01:35:02.718Z,25.20
2022-10-12T01:37:38.066Z,25.30
2022-10-12T01:40:10.115Z,25.40
2022-10-12T01:42:39.616Z,25.40
2022-10-12T01:45:09.606Z,25.60
2022-10-12T01:47:38.841Z,25.60
2022-10-12T01:50:11.556Z,25.70
2022-10-12T01:52:51.348Z,25.70
2022-10-12T01:55:34.374Z,25.80
2022-10-12T01:58:21.582Z,25.80
2022-10-12T02:01:09.285Z,25.90
2022-10-12T02:03:47.350Z,25.90
2022-10-12T02:06:20.287Z,26.00
2022-10-12T02:09:02.675Z,26.10
2022-10-12T02:11:31.824Z,26.20
2022-10-12T02:14:12.186Z,26.20
2022-10-12T02:16:51.210Z,26.30
2022-10-12T02:19:22.290Z,26.30
2022-10-12T02:21:50.612Z,26.40
2022-10-12T02:24:23.557Z,26.50
2022-10-12T02:26:53.289Z,26.50
2022-10-12T02:29:23.783Z,26.60
2022-10-12T02:32:07.753Z,26.60
2022-10-12T02:34:40.706Z,26.70
2022-10-12T02:37:12.958Z,26.80
2022-10-12T02:39:59.370Z,26.80
2022-10-12T02:42:41.822Z,26.80
2022-10-12T02:45:20.669Z,26.90
2022-10-12T02:47:50.081Z,27.10
2022-10-12T02:50:19.358Z,27.10
2022-10-12T02:52:47.526Z,27.20
2022-10-12T02:55:15.248Z,27.30
2022-10-12T02:57:42.919Z,27.30
2022-10-12T03:00:10.897Z,27.30
2022-10-12T03:02:38.613Z,27.30
2022-10-12T03:05:06.493Z,27.30
2022-10-12T03:07:34.078Z,27.30
2022-10-12T03:10:02.336Z,27.30
2022-10-12T03:12:31.868Z,27.40
2022-10-12T03:14:59.843Z,27.40
2022-10-12T03:17:27.599Z,27.40
2022-10-12T03:19:56.325Z,27.50
2022-10-12T03:22:26.970Z,27.60
2022-10-12T03:24:54.558Z,27.60
2022-10-12T03:27:23.323Z,27.60
2022-10-12T03:29:51.167Z,27.60
2022-10-12T03:32:21.243Z,27.60
2022-10-12T03:34:48.956Z,27.60
2022-10-12T03:37:17.690Z,27.70
2022-10-12T03:39:47.638Z,27.70
2022-10-12T03:42:16.216Z,27.70
2022-10-12T03:44:44.389Z,27.70
2022-10-12T03:47:21.665Z,27.80
2022-10-12T03:49:50.338Z,27.80
2022-10-12T03:52:17.962Z,27.80
2022-10-12T03:54:49.734Z,27.80
2022-10-12T03:57:17.458Z,27.80
2022-10-12T03:59:45.504Z,27.80
2022-10-12T04:02:16.890Z,27.80
2022-10-12T04:04:48.193Z,27.90
2022-10-12T04:07:16.791Z,27.90
2022-10-12T04:09:45.491Z,27.90
2022-10-12T04:12:14.373Z,28.00
2022-10-12T04:14:48.329Z,28.00
2022-10-12T04:17:18.040Z,28.10
2022-10-12T04:19:46.479Z,28.10
2022-10-12T04:22:26.882Z,28.10
2022-10-12T04:25:00.215Z,28.10
2022-10-12T04:27:29.110Z,28.20
2022-10-12T04:29:59.954Z,28.30
2022-10-12T04:32:27.616Z,28.30
2022-10-12T04:34:55.529Z,28.40
2022-10-12T04:37:24.428Z,28.50
2022-10-12T04:39:51.986Z,28.60
2022-10-12T04:42:22.746Z,28.60
2022-10-12T04:44:50.648Z,28.60
2022-10-12T04:47:18.619Z,28.70
2022-10-12T04:49:46.232Z,28.80
2022-10-12T04:52:14.444Z,28.80
2022-10-12T04:54:42.141Z,28.80
2022-10-12T04:57:09.867Z,28.80
2022-10-12T04:59:43.747Z,28.90
2022-10-12T05:02:13.539Z,28.90
2022-10-12T05:04:45.080Z,28.90
2022-10-12T05:07:12.636Z,29.00
2022-10-12T05:09:43.276Z,29.10
2022-10-12T05:12:13.900Z,29.20
2022-10-12T05:14:41.662Z,29.20
2022-10-12T05:17:09.306Z,29.20
2022-10-12T05:19:39.930Z,29.20
2022-10-12T05:22:07.723Z,29.20
2022-10-12T05:24:35.492Z,29.20
2022-10-12T05:27:03.377Z,29.30
2022-10-12T05:29:31.314Z,29.20
2022-10-12T05:31:59.093Z,29.30
2022-10-12T05:34:29.625Z,29.30
2022-10-12T05:36:58.692Z,29.30
2022-10-12T05:39:26.358Z,29.30
2022-10-12T05:41:56.681Z,29.30
2022-10-12T05:44:27.595Z,29.30
2022-10-12T05:46:55.310Z,29.30
2022-10-12T05:49:22.970Z,29.40
2022-10-12T05:51:50.533Z,29.40
2022-10-12T05:54:19.454Z,29.50
2022-10-12T05:56:47.158Z,29.60
2022-10-12T05:59:17.993Z,29.60
2022-10-12T06:01:48.766Z,29.70
2022-10-12T06:04:20.531Z,29.70
2022-10-12T06:06:51.163Z,29.80
2022-10-12T06:09:19.910Z,29.80
2022-10-12T06:11:48.530Z,29.80
2022-10-12T06:14:16.634Z,29.80
2022-10-12T06:16:49.109Z,29.90
2022-10-12T06:19:20.605Z,29.90
2022-10-12T06:21:50.088Z,29.90
2022-10-12T06:24:17.545Z,29.90
2022-10-12T06:26:48.206Z,29.90
2022-10-12T06:29:16.808Z,29.90
2022-10-12T06:31:51.514Z,29.90
2022-10-12T06:34:19.581Z,29.90
2022-10-12T06:36:48.853Z,30.00
2022-10-12T06:39:20.718Z,30.00
2022-10-12T06:41:54.763Z,30.00
2022-10-12T06:44:23.048Z,30.00
2022-10-12T06:46:57.022Z,30.00
2022-10-12T06:49:24.813Z,30.00
2022-10-12T06:51:52.475Z,30.10
2022-10-12T06:54:21.517Z,30.10
2022-10-12T06:56:49.567Z,30.10
2022-10-12T06:59:20.295Z,30.10
2022-10-12T07:01:47.960Z,30.10
2022-10-12T07:04:17.294Z,30.10
2022-10-12T07:06:48.301Z,30.10
2022-10-12T07:09:17.068Z,30.10
2022-10-12T07:11:45.476Z,30.10
2022-10-12T07:14:13.194Z,30.10
2022-10-12T07:16:40.734Z,30.20
2022-10-12T07:19:08.530Z,30.10
2022-10-12T07:21:40.229Z,30.20
2022-10-12T07:24:07.947Z,30.20
2022-10-12T07:26:42.467Z,30.20
2022-10-12T07:29:13.249Z,30.20
2022-10-12T07:31:43.245Z,30.10
2022-10-12T07:34:12.144Z,30.10
2022-10-12T07:36:58.477Z,30.10
2022-10-12T07:39:31.607Z,30.20
2022-10-12T07:41:59.860Z,30.20
2022-10-12T07:44:28.087Z,30.20
2022-10-12T07:46:59.010Z,30.20
2022-10-12T07:49:26.658Z,30.20
2022-10-12T07:51:55.585Z,30.60
2022-10-12T07:54:29.008Z,30.20
2022-10-12T07:56:58.204Z,30.20
2022-10-12T07:59:30.408Z,30.30
2022-10-12T08:02:01.467Z,30.20
2022-10-12T08:04:29.162Z,30.20
2022-10-12T08:06:58.286Z,30.20
2022-10-12T08:09:25.782Z,30.20
2022-10-12T08:11:53.808Z,30.20
2022-10-12T08:14:21.555Z,30.20
2022-10-12T08:16:52.139Z,30.20
2022-10-12T08:19:19.972Z,30.20
2022-10-12T08:21:51.663Z,30.20
2022-10-12T08:24:29.791Z,30.20
2022-10-12T08:27:01.519Z,30.20
2022-10-12T08:29:29.738Z,30.20
2022-10-12T08:31:57.511Z,30.20
2022-10-12T08:34:25.557Z,30.20
2022-10-12T08:36:53.536Z,30.20
2022-10-12T08:39:22.343Z,30.10
2022-10-12T08:42:02.173Z,30.20
2022-10-12T08:44:35.137Z,30.20
2022-10-12T08:47:11.591Z,30.20
2022-10-12T08:49:40.597Z,30.20
2022-10-12T08:52:17.719Z,30.20
2022-10-12T08:54:46.443Z,30.10
2022-10-12T08:57:20.736Z,30.10
2022-10-12T08:59:52.591Z,30.10
2022-10-12T09:02:34.215Z,30.10
2022-10-12T09:05:04.736Z,30.10
2022-10-12T09:07:38.501Z,30.10
2022-10-12T09:10:21.385Z,30.20
2022-10-12T09:13:01.317Z,30.10
2022-10-12T09:15:34.007Z,30.10
2022-10-12T09:18:03.246Z,30.10
2022-10-12T09:20:50.745Z,30.50
2022-10-12T09:23:26.379Z,30.00
2022-10-12T09:26:13.800Z,30.00
2022-10-12T09:28:44.614Z,29.90
2022-10-12T09:31:25.937Z,29.90
2022-10-12T09:34:05.571Z,29.90
2022-10-12T09:36:35.849Z,29.90
2022-10-12T09:39:08.248Z,29.90
2022-10-12T09:41:41.709Z,29.80
2022-10-12T09:44:15.036Z,29.80
2022-10-12T09:46:55.267Z,29.80
2022-10-12T09:49:23.919Z,29.70
2022-10-12T09:52:00.049Z,29.70
2022-10-12T09:54:29.134Z,29.70
2022-10-12T09:57:00.441Z,29.70
2022-10-12T09:59:37.780Z,29.60
2022-10-12T10:02:22.522Z,29.60
2022-10-12T10:04:51.729Z,29.50
2022-10-12T10:07:28.727Z,29.50
2022-10-12T10:10:17.358Z,29.50
2022-10-12T10:12:59.469Z,29.40
2022-10-12T10:15:34.591Z,29.40
2022-10-12T10:18:03.687Z,29.40
2022-10-12T10:20:33.589Z,29.30
2022-10-12T10:23:03.946Z,29.30
2022-10-12T10:25:31.842Z,29.30
2022-10-12T10:28:11.647Z,29.20
2022-10-12T10:30:41.265Z,29.20
2022-10-12T10:33:20.259Z,29.20
2022-10-12T10:36:00.154Z,29.10
2022-10-12T10:38:28.434Z,29.10
2022-10-12T10:40:57.728Z,29.00
2022-10-12T10:43:28.719Z,28.90
2022-10-12T10:45:58.506Z,28.90
2022-10-12T10:48:29.085Z,28.80
2022-10-12T10:51:01.239Z,28.70
2022-10-12T10:53:33.071Z,28.70
2022-10-12T10:56:09.908Z,28.60
2022-10-12T10:58:57.161Z,28.60
2022-10-12T11:01:45.296Z,28.60
2022-10-12T11:04:26.454Z,28.50
2022-10-12T11:06:56.303Z,28.50
2022-10-12T11:09:31.589Z,28.50
2022-10-12T11:12:05.831Z,28.50
2022-10-12T11:14:41.211Z,28.40
2022-10-12T11:17:14.138Z,28.40
2022-10-12T11:19:47.899Z,28.40
2022-10-12T11:22:28.863Z,28.30
2022-10-12T11:25:08.061Z,28.30
2022-10-12T11:27:38.594Z,28.30
2022-10-12T11:30:18.337Z,28.20
2022-10-12T11:32:47.956Z,28.20
2022-10-12T11:35:28.190Z,28.20
2022-10-12T11:38:00.903Z,28.20
2022-10-12T11:41:05.476Z,28.10
2022-10-12T11:43:37.775Z,28.10
2022-10-12T11:46:08.159Z,28.10
2022-10-12T11:48:40.962Z,28.10
2022-10-12T11:51:08.773Z,28.10
2022-10-12T11:53:51.901Z,28.10
2022-10-12T11:56:24.442Z,28.10
2022-10-12T11:59:00.987Z,28.10
2022-10-12T12:01:40.612Z,28.00
2022-10-12T12:04:44.491Z,28.00
2022-10-12T12:07:24.328Z,27.90
2022-10-12T12:09:53.563Z,27.90
2022-10-12T12:12:26.349Z,27.90
2022-10-12T12:15:02.344Z,27.90
2022-10-12T12:17:32.373Z,28.00
2022-10-12T12:20:20.463Z,27.90
2022-10-12T12:22:52.632Z,27.90
2022-10-12T12:25:23.127Z,27.90
2022-10-12T12:27:53.443Z,27.90
2022-10-12T12:30:32.199Z,27.90
2022-10-12T12:33:02.635Z,28.00
2022-10-12T12:35:41.222Z,28.00
2022-10-12T12:38:21.240Z,28.00
2022-10-12T12:41:01.167Z,28.00
2022-10-12T12:43:49.132Z,28.00
2022-10-12T12:46:16.969Z,28.00
2022-10-12T12:49:00.587Z,28.00
2022-10-12T12:51:37.455Z,28.00
2022-10-12T12:54:12.513Z,28.00
2022-10-12T12:56:53.479Z,28.00
2022-10-12T12:59:33.314Z,28.00
2022-10-12T13:02:21.464Z,28.00
2022-10-12T13:05:01.254Z,28.00
2022-10-12T13:07:41.021Z,28.00
2022-10-12T13:10:21.307Z,28.00
2022-10-12T13:13:04.800Z,28.00
2022-10-12T13:15:53.035Z,27.90
2022-10-12T13:18:46.872Z,27.90
2022-10-12T13:21:21.476Z,27.80
2022-10-12T13:23:51.744Z,27.80
2022-10-12T13:26:23.571Z,27.70
2022-10-12T13:28:51.591Z,27.60
2022-10-12T13:31:31.440Z,27.60
2022-10-12T13:34:11.130Z,27.50
2022-10-12T13:36:49.693Z,27.50
2022-10-12T13:39:21.663Z,27.40
2022-10-12T13:41:51.305Z,27.40
2022-10-12T13:44:31.802Z,27.40
2022-10-12T13:47:03.573Z,27.30
2022-10-12T13:49:35.201Z,27.30
2022-10-12T13:52:16.891Z,27.30
2022-10-12T13:54:46.736Z,27.30
2022-10-12T13:57:27.291Z,27.30
2022-10-12T13:59:58.162Z,27.30
2022-10-12T14:02:27.747Z,27.20
2022-10-12T14:04:56.548Z,27.20
2022-10-12T14:07:26.732Z,27.20
2022-10-12T14:09:58.620Z,27.10
2022-10-12T14:12:29.288Z,27.10
2022-10-12T14:14:57.477Z,27.10
2022-10-12T14:17:26.126Z,27.10
2022-10-12T14:19:55.570Z,27.10
2022-10-12T14:22:28.068Z,27.00
2022-10-12T14:25:10.201Z,27.10
2022-10-12T14:27:41.209Z,27.00
2022-10-12T14:30:22.544Z,27.00
2022-10-12T14:32:54.049Z,27.00
2022-10-12T14:35:27.102Z,27.00
2022-10-12T14:37:55.945Z,27.10
2022-10-12T14:40:39.855Z,27.00
2022-10-12T14:43:20.945Z,27.00
2022-10-12T14:45:49.594Z,27.10
2022-10-12T14:48:19.472Z,27.10
2022-10-12T14:50:47.156Z,27.10
2022-10-12T14:53:15.023Z,27.10
2022-10-12T14:55:43.300Z,27.10
2022-10-12T14:58:14.729Z,27.10
2022-10-12T15:00:42.827Z,27.10
2022-10-12T15:03:11.334Z,27.10
2022-10-12T15:05:38.842Z,27.20
2022-10-12T15:08:09.488Z,27.10
2022-10-12T15:10:40.808Z,27.10
2022-10-12T15:13:11.630Z,27.20
2022-10-12T15:15:41.361Z,27.10
2022-10-12T15:18:09.128Z,27.10
2022-10-12T15:20:37.611Z,27.10
2022-10-12T15:23:05.667Z,27.00
2022-10-12T15:25:52.823Z,27.00
2022-10-12T15:28:23.898Z,27.00
2022-10-12T15:31:18.395Z,27.00
2022-10-12T15:33:41.505Z,27.00
2022-10-12T15:36:09.609Z,27.00
2022-10-12T15:38:39.979Z,26.90
2022-10-12T15:41:15.197Z,27.00
2022-10-12T15:43:43.026Z,27.00
2022-10-12T15:46:12.404Z,26.90
2022-10-12T15:48:41.271Z,26.90
2022-10-12T15:51:14.118Z,26.90
2022-10-12T15:53:42.539Z,26.80
2022-10-12T15:56:12.927Z,26.80
2022-10-12T15:58:40.850Z,26.80
2022-10-12T16:01:11.667Z,26.80
2022-10-12T16:03:39.291Z,26.80
2022-10-12T16:06:07.911Z,26.80
2022-10-12T16:08:35.469Z,26.80
2022-10-12T16:11:04.607Z,26.80
2022-10-12T16:13:32.853Z,26.70
2022-10-12T16:16:00.369Z,26.70
2022-10-12T16:18:28.097Z,26.70
2022-10-12T16:20:56.729Z,26.70
2022-10-12T16:23:25.996Z,26.70
2022-10-12T16:25:54.015Z,26.60
2022-10-12T16:28:22.982Z,26.60
2022-10-12T16:30:51.642Z,26.60
2022-10-12T16:33:20.088Z,26.60
2022-10-12T16:35:47.998Z,26.60
2022-10-12T16:38:16.355Z,26.50
2022-10-12T16:40:43.944Z,26.50
2022-10-12T16:43:12.307Z,26.50
2022-10-12T16:45:39.905Z,26.50
2022-10-12T16:48:07.555Z,26.50
2022-10-12T16:50:40.145Z,26.50
2022-10-12T16:53:08.252Z,26.50
2022-10-12T16:55:37.659Z,26.40
2022-10-12T16:58:05.516Z,26.40
2022-10-12T17:00:33.394Z,26.40
2022-10-12T17:03:01.396Z,26.40
2022-10-12T17:05:29.249Z,26.40
2022-10-12T17:07:56.772Z,26.30
2022-10-12T17:10:25.091Z,26.30
2022-10-12T17:12:52.647Z,26.30
2022-10-12T17:15:20.194Z,26.30
2022-10-12T17:17:48.489Z,26.30
2022-10-12T17:20:16.246Z,26.20
2022-10-12T17:22:44.002Z,26.20
2022-10-12T17:25:11.969Z,26.20
2022-10-12T17:27:39.544Z,26.20
2022-10-12T17:30:08.166Z,26.20
2022-10-12T17:32:38.459Z,26.20
2022-10-12T17:35:08.937Z,26.10
2022-10-12T17:37:36.511Z,26.10
2022-10-12T17:40:05.002Z,26.10
2022-10-12T17:42:32.468Z,26.00
2022-10-12T17:45:00.057Z,26.00
2022-10-12T17:47:27.630Z,26.00
2022-10-12T17:49:55.124Z,25.90
2022-10-12T17:52:22.928Z,25.90
2022-10-12T17:54:50.438Z,25.90
2022-10-12T17:57:18.322Z,25.80
2022-10-12T17:59:46.298Z,25.80
2022-10-12T18:02:14.026Z,25.80
2022-10-12T18:04:41.828Z,25.80
2022-10-12T18:07:09.414Z,25.80
2022-10-12T18:09:36.948Z,25.70
2022-10-12T18:12:04.742Z,25.70
2022-10-12T18:14:32.287Z,25.70
2022-10-12T18:17:00.057Z,25.70
2022-10-12T18:19:28.097Z,25.60
2022-10-12T18:21:55.927Z,25.60
2022-10-12T18:24:23.993Z,25.60
2022-10-12T18:26:52.963Z,25.60
2022-10-12T18:29:20.421Z,25.60
2022-10-12T18:31:48.892Z,25.50
2022-10-12T18:34:16.891Z,25.50
2022-10-12T18:36:44.396Z,25.50
2022-10-12T18:39:12.277Z,25.40
2022-10-12T18:41:40.095Z,25.40
2022-10-12T18:44:09.340Z,25.30
2022-10-12T18:46:37.911Z,25.30
2022-10-12T18:49:08.056Z,25.30
2022-10-12T18:51:36.837Z,25.20
2022-10-12T18:54:04.576Z,25.20
2022-10-12T18:56:33.245Z,25.20
2022-10-12T18:59:01.031Z,25.20
2022-10-12T19:01:30.793Z,25.20
2022-10-12T19:04:00.736Z,25.10
2022-10-12T19:06:30.518Z,25.10
2022-10-12T19:08:58.669Z,25.10
2022-10-12T19:11:27.101Z,25.10
2022-10-12T19:13:56.863Z,25.10
2022-10-12T19:16:26.445Z,25.00
2022-10-12T19:18:59.080Z,25.10
2022-10-12T19:21:26.913Z,25.00
2022-10-12T19:23:55.331Z,25.00
2022-10-12T19:26:28.428Z,25.00
2022-10-12T19:28:56.696Z,25.00
2022-10-12T19:31:26.831Z,25.00
2022-10-12T19:34:13.993Z,25.00
2022-10-12T19:36:42.381Z,25.00
2022-10-12T19:39:12.546Z,24.90
2022-10-12T19:41:40.334Z,24.90
2022-10-12T19:44:07.900Z,24.80
2022-10-12T19:46:35.462Z,24.80
2022-10-12T19:49:03.323Z,24.80
2022-10-12T19:51:32.392Z,24.80
2022-10-12T19:54:01.159Z,24.80
2022-10-12T19:56:29.412Z,24.80
2022-10-12T19:58:57.866Z,24.80
2022-10-12T20:01:30.234Z,24.70
2022-10-12T20:03:58.100Z,24.70
2022-10-12T20:06:27.732Z,24.70
2022-10-12T20:08:56.634Z,24.60
2022-10-12T20:11:25.404Z,24.60
2022-10-12T20:13:53.488Z,24.60
2022-10-12T20:16:22.532Z,24.60
2022-10-12T20:18:50.529Z,24.70
2022-10-12T20:21:19.387Z,24.60
2022-10-12T20:23:50.152Z,24.60
2022-10-12T20:26:18.800Z,24.60
2022-10-12T20:28:50.078Z,24.60
2022-10-12T20:31:19.585Z,24.60
2022-10-12T20:33:49.657Z,24.50
2022-10-12T20:36:20.375Z,24.50
2022-10-12T20:38:48.185Z,24.50
2022-10-12T20:41:18.042Z,24.50
2022-10-12T20:43:46.374Z,24.50
2022-10-12T20:46:18.025Z,24.50
2022-10-12T20:48:46.235Z,24.40
2022-10-12T20:51:33.505Z,24.40
2022-10-12T20:54:03.298Z,24.40
2022-10-12T20:56:31.924Z,24.30
2022-10-12T20:59:00.550Z,24.40
2022-10-12T21:01:28.882Z,24.40
2022-10-12T21:03:56.983Z,24.30
2022-10-12T21:06:25.283Z,24.30
2022-10-12T21:08:53.970Z,24.30
2022-10-12T21:11:22.277Z,24.30
2022-10-12T21:13:49.859Z,24.20
2022-10-12T21:16:18.339Z,24.30
2022-10-12T21:18:45.904Z,24.20
2022-10-12T21:21:16.552Z,24.20
2022-10-12T21:23:45.224Z,24.20
2022-10-12T21:26:18.768Z,24.20
2022-10-12T21:28:47.334Z,24.10
2022-10-12T21:31:15.091Z,24.10
2022-10-12T21:33:42.688Z,24.10
2022-10-12T21:36:11.445Z,24.10
2022-10-12T21:38:39.261Z,24.10
2022-10-12T21:41:08.226Z,24.10
2022-10-12T21:43:36.734Z,24.10
2022-10-12T21:46:05.256Z,24.00
2022-10-12T21:48:34.388Z,24.00
2022-10-12T21:51:02.173Z,24.00
2022-10-12T21:53:29.752Z,24.00
2022-10-12T21:55:57.280Z,24.00
2022-10-12T21:58:25.085Z,24.00
2022-10-12T22:00:52.672Z,24.00
2022-10-12T22:03:20.252Z,23.90
2022-10-12T22:05:48.687Z,24.00
2022-10-12T22:08:16.391Z,24.00
2022-10-12T22:10:44.792Z,23.90
2022-10-12T22:13:12.272Z,23.90
2022-10-12T22:15:40.119Z,23.90
2022-10-12T22:18:08.563Z,23.90
2022-10-12T22:20:39.553Z,23.90
2022-10-12T22:23:07.042Z,23.90
2022-10-12T22:25:34.777Z,23.90
2022-10-12T22:28:03.164Z,23.90
2022-10-12T22:30:30.676Z,23.90
2022-10-12T22:32:58.228Z,23.90
2022-10-12T22:35:25.797Z,23.90
2022-10-12T22:37:53.346Z,23.90
2022-10-12T22:40:23.769Z,23.90
2022-10-12T22:42:51.354Z,23.90
2022-10-12T22:45:18.934Z,23.80
2022-10-12T22:47:46.573Z,23.80
2022-10-12T22:50:14.084Z,23.80
2022-10-12T22:52:41.560Z,23.80
2022-10-12T22:55:10.466Z,23.80
2022-10-12T22:57:38.862Z,23.80
2022-10-12T23:00:07.009Z,23.80
2022-10-12T23:02:34.676Z,23.80
2022-10-12T23:05:02.204Z,23.80
2022-10-12T23:07:29.957Z,23.80
2022-10-12T23:09:57.742Z,23.80
2022-10-12T23:12:25.335Z,23.80
2022-10-12T23:14:52.981Z,23.80
2022-10-12T23:17:21.299Z,23.80
2022-10-12T23:19:49.528Z,23.80
2022-10-12T23:22:17.319Z,23.80
2022-10-12T23:24:44.954Z,23.70
2022-10-12T23:27:12.486Z,23.70
2022-10-12T23:29:40.089Z,23.80
2022-10-12T23:32:08.543Z,23.80
2022-10-12T23:34:36.119Z,23.80
2022-10-12T23:37:04.545Z,23.80
2022-10-12T23:39:32.059Z,23.80
2022-10-12T23:42:00.553Z,23.80
2022-10-12T23:44:28.010Z,23.90
2022-10-12T23:46:56.405Z,23.90
2022-10-12T23:49:24.005Z,23.90
2022-10-12T23:51:51.752Z,23.90
2022-10-12T23:54:19.316Z,23.90
2022-10-12T23:56:46.862Z,23.90
2022-10-12T23:59:14.485Z,23.90
